Time;durP1;ratioP1;P1;durP2;ratioP2;P2;SDS_P1;SDS_P2;PMS_P1;PMS_P2;Temp;Humidity;BMP_temperature;BMP_pressure;BME280_temperature;BME280_humidity;BME280_pressure;Samples;Min_cycle;Max_cycle;Signal;HPM_P1;HPM_P2
2021/12/23 00:02:20;;;;;;;29.83;10.85;;;;;;;;;;5032157;28;20710;-66
2021/12/23 00:04:45;;;;;;;28.15;12.07;;;;;;;;;;5050416;28;20049;-65
2021/12/23 00:07:11;;;;;;;20.85;9.70;;;;;;;;;;5050865;28;20074;-65
2021/12/23 00:12:13;;;;;;;39.50;14.65;;;;;;;;;;5050156;28;20032;-65
2021/12/23 00:14:39;;;;;;;34.58;13.57;;;;;;;;;;5049606;28;20013;-65
2021/12/23 00:17:21;;;;;;;36.58;16.95;;;;;;;;;;5049320;28;20060;-65
2021/12/23 00:19:59;;;;;;;26.85;11.57;;;;;;;;;;5049239;28;20020;-67
2021/12/23 00:25:08;;;;;;;34.70;11.32;;;;;;;;;;5049500;28;20115;-65
2021/12/23 00:27:33;;;;;;;33.22;13.85;;;;;;;;;;5049159;28;20451;-65
2021/12/23 00:29:58;;;;;;;26.98;8.20;;;;;;;;;;5048349;28;20071;-65
2021/12/23 00:32:24;;;;;;;29.85;12.52;;;;;;;;;;5049151;28;20039;-65
2021/12/23 00:34:49;;;;;;;26.10;11.10;;;;;;;;;;5048962;28;20025;-65
2021/12/23 00:37:14;;;;;;;45.00;20.35;;;;;;;;;;5045473;28;20420;-67
2021/12/23 00:39:39;;;;;;;28.77;13.23;;;;;;;;;;5049309;28;20140;-65
2021/12/23 00:42:07;;;;;;;34.05;14.32;;;;;;;;;;5046259;28;20104;-65
2021/12/23 00:44:37;;;;;;;28.77;13.25;;;;;;;;;;5049112;28;20496;-65
2021/12/23 00:47:03;;;;;;;21.65;9.93;;;;;;;;;;5049172;28;20033;-64
2021/12/23 00:49:28;;;;;;;32.83;14.23;;;;;;;;;;5044719;28;20031;-65
2021/12/23 00:51:54;;;;;;;34.88;17.13;;;;;;;;;;5048587;28;20477;-65
2021/12/23 00:54:19;;;;;;;36.15;16.52;;;;;;;;;;5049163;28;20423;-65
2021/12/23 00:56:48;;;;;;;19.83;8.25;;;;;;;;;;5048686;28;20024;-65
2021/12/23 00:59:13;;;;;;;18.80;7.75;;;;;;;;;;5048376;28;20566;-65
2021/12/23 01:01:39;;;;;;;31.83;13.48;;;;;;;;;;5048534;28;20021;-65
2021/12/23 01:04:04;;;;;;;28.35;11.68;;;;;;;;;;5048547;28;20021;-65
2021/12/23 01:06:29;;;;;;;24.95;12.38;;;;;;;;;;5048191;28;20025;-65
2021/12/23 01:08:54;;;;;;;23.17;10.10;;;;;;;;;;5049649;28;20414;-65
2021/12/23 01:11:19;;;;;;;33.38;14.07;;;;;;;;;;5048174;28;20481;-65
2021/12/23 01:14:00;;;;;;;34.70;14.57;;;;;;;;;;5049182;28;20021;-65
2021/12/23 01:16:37;;;;;;;29.35;10.20;;;;;;;;;;5048038;28;20024;-65
2021/12/23 01:19:10;;;;;;;39.65;18.30;;;;;;;;;;5048408;28;20040;-64
2021/12/23 01:21:35;;;;;;;33.80;11.18;;;;;;;;;;5047500;28;20131;-67
2021/12/23 01:24:00;;;;;;;40.05;14.13;;;;;;;;;;5031993;28;20120;-65
2021/12/23 01:26:25;;;;;;;35.03;16.63;;;;;;;;;;5049408;28;20024;-66
2021/12/23 01:28:53;;;;;;;34.03;15.45;;;;;;;;;;5049895;28;20082;-65
2021/12/23 01:31:18;;;;;;;33.70;14.98;;;;;;;;;;5049421;28;20025;-66
2021/12/23 01:33:44;;;;;;;32.47;13.23;;;;;;;;;;5051063;28;20028;-65
2021/12/23 01:36:09;;;;;;;30.85;11.85;;;;;;;;;;5052497;28;20039;-64
2021/12/23 01:38:35;;;;;;;42.47;19.08;;;;;;;;;;5053175;28;20032;-65
2021/12/23 01:41:00;;;;;;;25.63;9.95;;;;;;;;;;5052433;28;20016;-65
2021/12/23 01:43:25;;;;;;;34.72;14.43;;;;;;;;;;5052782;28;20025;-65
2021/12/23 01:45:51;;;;;;;32.58;11.77;;;;;;;;;;5051904;28;20033;-66
2021/12/23 01:48:17;;;;;;;31.50;10.98;;;;;;;;;;5052081;28;20381;-65
2021/12/23 01:50:42;;;;;;;36.13;14.32;;;;;;;;;;5052246;28;20369;-65
2021/12/23 01:53:08;;;;;;;38.90;15.93;;;;;;;;;;5052477;28;20036;-65
2021/12/23 01:55:35;;;;;;;27.00;11.27;;;;;;;;;;5048910;28;20488;-67
2021/12/23 01:58:00;;;;;;;29.13;13.20;;;;;;;;;;5051792;28;20025;-64
2021/12/23 02:00:27;;;;;;;43.13;15.85;;;;;;;;;;5052093;28;20097;-65
2021/12/23 02:02:53;;;;;;;36.95;14.30;;;;;;;;;;5052247;28;20025;-66
2021/12/23 02:05:18;;;;;;;31.08;13.15;;;;;;;;;;5051846;28;20025;-65
2021/12/23 02:07:44;;;;;;;25.95;11.93;;;;;;;;;;5052332;28;20376;-66
2021/12/23 02:10:10;;;;;;;24.48;9.38;;;;;;;;;;5051562;28;20107;-66
2021/12/23 02:12:35;;;;;;;21.80;9.52;;;;;;;;;;5052528;28;20036;-65
2021/12/23 02:15:01;;;;;;;40.35;16.00;;;;;;;;;;5051291;28;20025;-65
2021/12/23 02:17:26;;;;;;;49.70;21.35;;;;;;;;;;5051903;28;20568;-66
2021/12/23 02:19:55;;;;;;;43.60;18.80;;;;;;;;;;5051278;28;20024;-65
2021/12/23 02:22:20;;;;;;;33.67;13.88;;;;;;;;;;5044555;28;20028;-66
2021/12/23 02:24:45;;;;;;;36.40;16.67;;;;;;;;;;5051569;28;20017;-64
2021/12/23 02:27:11;;;;;;;32.78;12.88;;;;;;;;;;5051906;28;20431;-65
2021/12/23 02:29:36;;;;;;;29.30;13.05;;;;;;;;;;5049831;28;20108;-67
2021/12/23 02:32:01;;;;;;;24.35;11.30;;;;;;;;;;5050671;28;20047;-65
2021/12/23 02:34:27;;;;;;;48.90;15.07;;;;;;;;;;5050973;28;20024;-65
2021/12/23 02:36:53;;;;;;;41.85;18.50;;;;;;;;;;5051234;28;20091;-64
2021/12/23 02:39:19;;;;;;;40.22;17.08;;;;;;;;;;5052658;28;20028;-65
2021/12/23 02:41:45;;;;;;;32.58;12.80;;;;;;;;;;5032767;28;20086;-65
2021/12/23 02:44:11;;;;;;;25.15;11.65;;;;;;;;;;5050392;28;20033;-65
2021/12/23 02:46:36;;;;;;;37.22;14.63;;;;;;;;;;5050963;28;20017;-65
2021/12/23 02:49:02;;;;;;;44.67;19.83;;;;;;;;;;5050461;28;20024;-64
2021/12/23 02:51:27;;;;;;;35.60;14.23;;;;;;;;;;5051030;28;20036;-64
2021/12/23 02:53:53;;;;;;;31.60;14.38;;;;;;;;;;5050402;28;20028;-65
2021/12/23 02:56:18;;;;;;;36.45;16.00;;;;;;;;;;5051160;28;20393;-64
2021/12/23 02:58:45;;;;;;;18.70;9.15;;;;;;;;;;5050222;28;20074;-66
2021/12/23 03:01:11;;;;;;;26.73;12.15;;;;;;;;;;5051248;28;20013;-66
2021/12/23 03:03:36;;;;;;;33.47;14.00;;;;;;;;;;5050111;28;20028;-65
2021/12/23 03:06:02;;;;;;;38.53;13.15;;;;;;;;;;5050788;28;20029;-66
2021/12/23 03:08:35;;;;;;;39.75;19.95;;;;;;;;;;5049847;28;20104;-65
2021/12/23 03:11:01;;;;;;;27.30;12.02;;;;;;;;;;5050034;28;20085;-64
2021/12/23 03:13:26;;;;;;;29.88;11.95;;;;;;;;;;5049117;28;20033;-64
2021/12/23 03:15:51;;;;;;;26.75;12.02;;;;;;;;;;5050605;28;20033;-64
2021/12/23 03:18:16;;;;;;;31.90;14.13;;;;;;;;;;5051736;28;20061;-65
2021/12/23 03:20:42;;;;;;;36.83;12.63;;;;;;;;;;5051547;28;20104;-64
2021/12/23 03:23:07;;;;;;;33.08;14.32;;;;;;;;;;5051663;28;20024;-64
2021/12/23 03:25:32;;;;;;;28.55;10.52;;;;;;;;;;5051381;28;20025;-65
2021/12/23 03:27:57;;;;;;;27.15;13.93;;;;;;;;;;5050312;28;20386;-65
2021/12/23 03:30:23;;;;;;;24.27;9.88;;;;;;;;;;5049373;28;20028;-65
2021/12/23 03:32:48;;;;;;;21.95;8.88;;;;;;;;;;5048315;28;20036;-65
2021/12/23 03:35:13;;;;;;;41.97;18.05;;;;;;;;;;5049374;28;20029;-66
2021/12/23 03:37:38;;;;;;;41.38;18.67;;;;;;;;;;5050053;28;20464;-65
2021/12/23 03:40:04;;;;;;;33.72;14.80;;;;;;;;;;5051137;28;20021;-65
2021/12/23 03:42:29;;;;;;;30.48;13.73;;;;;;;;;;5049810;28;20283;-64
2021/12/23 03:44:54;;;;;;;32.35;15.68;;;;;;;;;;5031681;28;20025;-64
2021/12/23 03:47:20;;;;;;;24.50;9.85;;;;;;;;;;5049798;28;20629;-64
2021/12/23 03:49:45;;;;;;;35.00;15.45;;;;;;;;;;5049275;28;20025;-65
2021/12/23 03:52:10;;;;;;;23.85;10.98;;;;;;;;;;5050348;28;20021;-64
2021/12/23 03:54:35;;;;;;;15.68;7.88;;;;;;;;;;5049642;28;20028;-65
2021/12/23 03:57:00;;;;;;;33.30;13.93;;;;;;;;;;5049685;28;20048;-64
2021/12/23 03:59:26;;;;;;;33.13;12.25;;;;;;;;;;5048312;28;20111;-64
2021/12/23 04:01:51;;;;;;;42.60;19.83;;;;;;;;;;5045993;28;20112;-65
2021/12/23 04:04:16;;;;;;;48.65;21.55;;;;;;;;;;5050030;28;20079;-64
2021/12/23 04:06:41;;;;;;;27.63;11.85;;;;;;;;;;5048943;28;20370;-64
2021/12/23 04:09:06;;;;;;;26.67;9.55;;;;;;;;;;5049942;28;20485;-65
2021/12/23 04:11:32;;;;;;;27.67;11.73;;;;;;;;;;5049044;28;20082;-66
2021/12/23 04:13:58;;;;;;;27.88;11.70;;;;;;;;;;5049203;28;20163;-64
2021/12/23 04:16:23;;;;;;;32.30;14.23;;;;;;;;;;5049598;28;20021;-64
2021/12/23 04:18:50;;;;;;;34.15;15.93;;;;;;;;;;5049189;28;20020;-64
2021/12/23 04:21:16;;;;;;;32.10;14.68;;;;;;;;;;5048753;28;20017;-64
2021/12/23 04:23:41;;;;;;;45.80;17.58;;;;;;;;;;5049419;28;20092;-66
2021/12/23 04:26:09;;;;;;;33.30;14.10;;;;;;;;;;5047928;28;20119;-66
2021/12/23 04:28:44;;;;;;;29.63;13.13;;;;;;;;;;5049765;28;20401;-65
2021/12/23 04:31:09;;;;;;;33.42;12.85;;;;;;;;;;5049512;28;20358;-64
2021/12/23 04:33:34;;;;;;;46.67;14.07;;;;;;;;;;5049401;28;20021;-65
2021/12/23 04:35:59;;;;;;;27.73;12.30;;;;;;;;;;5049401;28;20025;-64
2021/12/23 04:38:24;;;;;;;23.33;10.32;;;;;;;;;;5050470;28;20078;-66
2021/12/23 04:40:51;;;;;;;31.02;13.52;;;;;;;;;;5049274;28;20516;-67
2021/12/23 04:43:16;;;;;;;26.38;12.70;;;;;;;;;;5049979;28;20111;-64
2021/12/23 04:45:41;;;;;;;36.30;16.25;;;;;;;;;;5050036;28;20029;-65
2021/12/23 04:48:06;;;;;;;37.70;15.10;;;;;;;;;;5049318;28;20424;-64
2021/12/23 04:50:31;;;;;;;47.00;21.27;;;;;;;;;;5049505;28;20364;-65
2021/12/23 04:52:57;;;;;;;46.90;19.42;;;;;;;;;;5049423;28;20440;-65
2021/12/23 04:55:22;;;;;;;35.33;15.98;;;;;;;;;;5049208;28;20025;-64
2021/12/23 04:57:47;;;;;;;27.52;11.75;;;;;;;;;;5047335;28;20031;-65
2021/12/23 05:00:17;;;;;;;34.13;12.52;;;;;;;;;;5049273;28;20348;-64
2021/12/23 05:02:42;;;;;;;35.13;12.43;;;;;;;;;;5049696;28;20047;-65
2021/12/23 05:05:08;;;;;;;33.90;14.75;;;;;;;;;;5049851;28;20525;-64
2021/12/23 05:07:33;;;;;;;45.92;17.15;;;;;;;;;;5032015;28;20055;-64
2021/12/23 05:09:58;;;;;;;46.35;17.20;;;;;;;;;;5053181;28;20021;-66
2021/12/23 05:12:24;;;;;;;35.40;14.10;;;;;;;;;;5052776;28;20088;-64
2021/12/23 05:14:49;;;;;;;23.85;10.10;;;;;;;;;;5052368;28;20310;-65
2021/12/23 05:17:14;;;;;;;32.47;11.27;;;;;;;;;;5052341;28;20021;-65
2021/12/23 05:19:39;;;;;;;34.17;13.15;;;;;;;;;;5052382;28;20096;-64
2021/12/23 05:22:05;;;;;;;40.63;17.30;;;;;;;;;;5049430;28;20515;-65
2021/12/23 05:24:30;;;;;;;44.88;17.80;;;;;;;;;;5051449;28;20013;-65
2021/12/23 05:26:55;;;;;;;27.33;12.68;;;;;;;;;;5051898;28;20024;-65
2021/12/23 05:29:20;;;;;;;24.08;11.57;;;;;;;;;;5052932;28;20084;-65
2021/12/23 05:31:46;;;;;;;32.80;13.05;;;;;;;;;;5051468;28;20013;-64
2021/12/23 05:34:11;;;;;;;27.38;11.80;;;;;;;;;;5035338;28;20029;-64
2021/12/23 05:36:36;;;;;;;32.97;11.70;;;;;;;;;;5052294;28;20029;-64
2021/12/23 05:39:02;;;;;;;28.05;11.43;;;;;;;;;;5052758;28;20071;-64
2021/12/23 05:41:27;;;;;;;31.95;13.85;;;;;;;;;;5052265;28;20363;-64
2021/12/23 05:43:54;;;;;;;30.48;12.88;;;;;;;;;;5060005;22;20131;-87
2021/12/23 05:46:19;;;;;;;41.75;17.58;;;;;;;;;;5033578;28;20033;-88
2021/12/23 05:48:44;;;;;;;37.92;14.52;;;;;;;;;;5033617;28;20031;-88
2021/12/23 05:51:10;;;;;;;20.50;9.27;;;;;;;;;;5028673;28;20066;-88
2021/12/23 05:53:35;;;;;;;25.10;11.77;;;;;;;;;;5051784;28;20424;-88
2021/12/23 05:56:00;;;;;;;37.67;15.13;;;;;;;;;;5050012;28;20025;-88
2021/12/23 05:58:25;;;;;;;34.13;13.38;;;;;;;;;;5033990;28;20104;-88
2021/12/23 06:00:53;;;;;;;41.25;16.63;;;;;;;;;;5033201;28;20044;-88
2021/12/23 06:03:18;;;;;;;32.72;14.88;;;;;;;;;;5033882;28;20013;-88
2021/12/23 06:05:43;;;;;;;29.05;13.80;;;;;;;;;;5033994;28;20390;-89
2021/12/23 06:08:08;;;;;;;31.92;13.27;;;;;;;;;;5033535;28;20033;-89
2021/12/23 06:10:34;;;;;;;49.72;19.73;;;;;;;;;;5033145;28;20182;-88
2021/12/23 06:12:59;;;;;;;40.10;17.58;;;;;;;;;;5033940;28;20170;-87
2021/12/23 06:15:24;;;;;;;37.75;16.13;;;;;;;;;;5034040;28;20437;-88
2021/12/23 06:17:50;;;;;;;26.65;11.85;;;;;;;;;;5033635;28;20576;-88
2021/12/23 06:20:15;;;;;;;38.90;15.40;;;;;;;;;;5032660;28;20048;-88
2021/12/23 06:22:41;;;;;;;40.72;16.00;;;;;;;;;;5033384;28;20033;-88
2021/12/23 06:25:09;;;;;;;36.78;14.45;;;;;;;;;;5052162;28;20013;-89
2021/12/23 06:27:34;;;;;;;40.30;17.00;;;;;;;;;;5051969;28;20017;-88
2021/12/23 06:30:00;;;;;;;42.55;18.17;;;;;;;;;;5034036;28;20542;-88
2021/12/23 06:32:25;;;;;;;27.58;11.82;;;;;;;;;;5033000;28;20495;-88
2021/12/23 06:34:50;;;;;;;27.17;10.85;;;;;;;;;;5032844;28;20017;-87
2021/12/23 06:37:16;;;;;;;34.55;13.45;;;;;;;;;;5033785;28;20548;-89
2021/12/23 06:39:44;;;;;;;21.98;10.85;;;;;;;;;;5051534;28;20027;-88
2021/12/23 06:42:09;;;;;;;52.85;22.08;;;;;;;;;;5063985;23;20501;-66
2021/12/23 06:44:34;;;;;;;35.72;14.35;;;;;;;;;;5051451;28;20021;-65
2021/12/23 06:46:59;;;;;;;21.50;9.70;;;;;;;;;;5051829;28;20037;-65
2021/12/23 06:49:26;;;;;;;28.65;12.45;;;;;;;;;;5050970;28;20025;-67
2021/12/23 06:51:51;;;;;;;47.58;19.75;;;;;;;;;;5051190;28;20104;-67
2021/12/23 06:54:17;;;;;;;28.77;12.18;;;;;;;;;;5051599;28;20108;-67
2021/12/23 06:56:42;;;;;;;40.72;17.92;;;;;;;;;;5051822;28;20028;-66
2021/12/23 06:59:08;;;;;;;25.42;11.82;;;;;;;;;;5051440;28;20070;-67
2021/12/23 07:01:33;;;;;;;39.63;17.63;;;;;;;;;;5051226;28;20485;-66
2021/12/23 07:06:24;;;;;;;28.27;9.48;;;;;;;;;;5051115;28;20428;-67
2021/12/23 07:08:50;;;;;;;26.05;9.25;;;;;;;;;;5051534;28;20512;-66
2021/12/23 07:11:15;;;;;;;34.25;14.52;;;;;;;;;;5036128;28;20028;-66
2021/12/23 07:13:40;;;;;;;45.80;19.00;;;;;;;;;;5051512;28;20021;-67
2021/12/23 07:16:05;;;;;;;22.45;9.40;;;;;;;;;;5051597;28;20017;-66
2021/12/23 07:18:31;;;;;;;32.95;12.98;;;;;;;;;;5051063;28;20338;-66
2021/12/23 07:20:56;;;;;;;44.33;18.05;;;;;;;;;;5050534;28;20028;-65
2021/12/23 07:23:21;;;;;;;42.83;16.08;;;;;;;;;;5051146;28;20051;-66
2021/12/23 07:25:46;;;;;;;23.63;10.68;;;;;;;;;;5051112;28;20071;-66
2021/12/23 07:28:11;;;;;;;34.38;13.43;;;;;;;;;;5050963;28;20029;-66
2021/12/23 07:30:37;;;;;;;28.10;12.25;;;;;;;;;;5053930;28;20036;-67
2021/12/23 07:33:02;;;;;;;21.17;8.00;;;;;;;;;;5055726;28;20029;-65
2021/12/23 07:35:27;;;;;;;45.45;18.80;;;;;;;;;;5050983;28;20032;-66
2021/12/23 07:37:52;;;;;;;33.40;12.38;;;;;;;;;;5050555;28;20036;-67
2021/12/23 07:40:18;;;;;;;43.22;16.77;;;;;;;;;;5048413;28;20103;-66
2021/12/23 07:42:53;;;;;;;20.48;8.88;;;;;;;;;;5048788;28;20082;-67
2021/12/23 07:45:19;;;;;;;34.70;14.95;;;;;;;;;;5048571;28;20025;-66
2021/12/23 07:47:44;;;;;;;13.98;7.35;;;;;;;;;;5048979;28;20016;-65
2021/12/23 07:50:10;;;;;;;28.75;12.48;;;;;;;;;;5054894;28;20420;-66
2021/12/23 07:52:35;;;;;;;21.80;8.45;;;;;;;;;;5048491;28;20024;-65
2021/12/23 07:55:00;;;;;;;28.65;11.75;;;;;;;;;;5049886;28;20025;-65
2021/12/23 07:57:26;;;;;;;30.35;13.10;;;;;;;;;;5049239;28;20036;-67
2021/12/23 07:59:51;;;;;;;18.58;9.02;;;;;;;;;;5048890;28;20025;-67
2021/12/23 08:02:16;;;;;;;26.60;11.02;;;;;;;;;;5046288;28;20025;-67
2021/12/23 08:04:41;;;;;;;47.72;14.18;;;;;;;;;;5047788;28;20028;-65
2021/12/23 08:07:06;;;;;;;36.42;16.77;;;;;;;;;;5047773;28;20025;-68
2021/12/23 08:09:32;;;;;;;37.10;12.88;;;;;;;;;;5047843;28;20037;-66
2021/12/23 08:11:59;;;;;;;15.55;7.60;;;;;;;;;;5048759;28;20028;-66
2021/12/23 08:14:24;;;;;;;28.60;11.32;;;;;;;;;;5047858;28;20515;-65
2021/12/23 08:16:49;;;;;;;34.05;13.25;;;;;;;;;;5053166;28;20023;-66
2021/12/23 08:19:14;;;;;;;25.92;10.52;;;;;;;;;;5047788;28;20043;-67
2021/12/23 08:21:40;;;;;;;39.95;15.55;;;;;;;;;;5044578;28;20027;-67
2021/12/23 08:24:05;;;;;;;29.83;12.20;;;;;;;;;;5046772;28;20021;-66
2021/12/23 08:26:39;;;;;;;31.65;12.77;;;;;;;;;;5053824;28;20056;-65
2021/12/23 08:29:04;;;;;;;30.77;12.52;;;;;;;;;;5046562;28;20106;-67
2021/12/23 08:31:29;;;;;;;20.45;9.25;;;;;;;;;;5058504;28;20082;-66
2021/12/23 08:33:54;;;;;;;37.13;14.35;;;;;;;;;;5047555;28;20401;-66
2021/12/23 08:36:20;;;;;;;31.08;12.95;;;;;;;;;;5047347;28;20495;-66
2021/12/23 08:38:45;;;;;;;39.08;15.13;;;;;;;;;;5048084;28;20021;-66
2021/12/23 08:41:10;;;;;;;37.42;14.68;;;;;;;;;;5047097;28;20029;-66
2021/12/23 08:43:35;;;;;;;37.67;14.95;;;;;;;;;;5046877;28;20507;-66
2021/12/23 08:46:01;;;;;;;41.80;17.10;;;;;;;;;;5046992;28;20033;-66
2021/12/23 08:48:26;;;;;;;30.48;11.88;;;;;;;;;;5048072;28;20489;-65
2021/12/23 08:50:51;;;;;;;23.88;8.63;;;;;;;;;;5047480;28;20540;-67
2021/12/23 08:53:17;;;;;;;31.42;12.07;;;;;;;;;;5047933;28;20111;-66
2021/12/23 08:55:42;;;;;;;31.40;12.30;;;;;;;;;;5029935;28;20033;-66
2021/12/23 08:58:08;;;;;;;26.38;11.27;;;;;;;;;;5047449;28;20108;-67
2021/12/23 09:00:35;;;;;;;33.97;14.45;;;;;;;;;;5047269;28;20021;-66
2021/12/23 09:03:01;;;;;;;30.48;13.77;;;;;;;;;;5047575;28;20103;-66
2021/12/23 09:05:26;;;;;;;32.67;12.90;;;;;;;;;;5047631;28;20044;-66
2021/12/23 09:07:51;;;;;;;23.25;10.35;;;;;;;;;;5047391;28;20131;-65
2021/12/23 09:10:17;;;;;;;34.97;13.25;;;;;;;;;;5046597;28;20021;-66
2021/12/23 09:12:43;;;;;;;31.90;11.35;;;;;;;;;;5043786;28;20032;-65
2021/12/23 09:15:09;;;;;;;28.58;11.00;;;;;;;;;;5046929;28;20112;-65
2021/12/23 09:17:34;;;;;;;32.72;11.25;;;;;;;;;;5047356;28;20040;-66
2021/12/23 09:19:59;;;;;;;39.35;14.90;;;;;;;;;;5046985;28;20020;-66
2021/12/23 09:22:24;;;;;;;26.67;10.25;;;;;;;;;;5046803;28;20081;-65
2021/12/23 09:24:52;;;;;;;21.08;10.88;;;;;;;;;;5029571;28;20096;-66
2021/12/23 09:27:37;;;;;;;21.73;9.32;;;;;;;;;;5029186;28;20098;-66
2021/12/23 09:32:54;;;;;;;25.40;9.77;;;;;;;;;;5044805;28;20508;-65
2021/12/23 09:35:21;;;;;;;25.23;12.45;;;;;;;;;;5029310;28;20033;-65
2021/12/23 09:37:47;;;;;;;27.63;11.57;;;;;;;;;;5047328;28;20029;-66
2021/12/23 09:40:12;;;;;;;29.45;13.77;;;;;;;;;;5046564;28;20040;-66
2021/12/23 09:42:39;;;;;;;30.25;14.07;;;;;;;;;;5046886;28;20056;-66
2021/12/23 09:45:06;;;;;;;43.45;16.05;;;;;;;;;;5047040;28;20036;-65
2021/12/23 09:47:33;;;;;;;36.38;10.48;;;;;;;;;;5047070;28;20112;-66
2021/12/23 09:50:00;;;;;;;25.98;11.02;;;;;;;;;;5047094;28;20040;-67
2021/12/23 09:52:29;;;;;;;24.90;12.05;;;;;;;;;;5047182;28;20364;-66
2021/12/23 09:54:55;;;;;;;34.25;15.00;;;;;;;;;;5047801;28;20032;-66
2021/12/23 09:57:20;;;;;;;35.17;14.48;;;;;;;;;;5050044;28;20064;-66
2021/12/23 09:59:45;;;;;;;38.65;15.23;;;;;;;;;;5049538;28;20060;-65
2021/12/23 10:02:11;;;;;;;23.10;10.68;;;;;;;;;;5031072;28;20013;-65
2021/12/23 10:04:36;;;;;;;36.60;15.15;;;;;;;;;;5060616;28;20025;-65
2021/12/23 10:07:02;;;;;;;30.48;12.27;;;;;;;;;;5052982;28;20099;-65
2021/12/23 10:09:42;;;;;;;28.58;11.93;;;;;;;;;;5052331;28;20059;-65
2021/12/23 10:31:05;;;;;;;18.85;9.65;;;;;;;;;;5051686;28;20028;-65
2021/12/23 10:33:47;;;;;;;29.23;12.45;;;;;;;;;;5052041;28;20040;-67
2021/12/23 10:38:42;;;;;;;25.80;10.75;;;;;;;;;;5050846;28;20254;-66
2021/12/23 10:41:12;;;;;;;14.32;5.75;;;;;;;;;;5062034;28;20029;-66
2021/12/23 10:43:37;;;;;;;;;;;;;;;;;;5054549;28;22270;-66
2021/12/23 10:46:05;;;;;;;25.13;10.20;;;;;;;;;;5058704;28;19912;-66
2021/12/23 10:48:33;;;;;;;33.17;13.82;;;;;;;;;;5052006;28;20758;-65
2021/12/23 10:51:06;;;;;;;31.40;15.38;;;;;;;;;;5050959;28;20032;-67
2021/12/23 10:59:00;;;;;;;16.05;8.32;;;;;;;;;;5052017;28;20126;-66
2021/12/23 11:01:25;;;;;;;37.40;12.73;;;;;;;;;;5052358;28;20016;-66
2021/12/23 11:03:51;;;;;;;21.13;8.40;;;;;;;;;;5052116;28;20024;-66
2021/12/23 11:08:57;;;;;;;27.98;10.73;;;;;;;;;;5051537;28;20036;-66
2021/12/23 11:43:53;;;;;;;24.55;9.80;;;;;;;;;;5050654;28;20075;-66
2021/12/23 11:46:25;;;;;;;30.13;10.23;;;;;;;;;;5050706;28;20094;-67
2021/12/23 11:48:55;;;;;;;21.67;8.43;;;;;;;;;;5050589;28;20025;-66
2021/12/23 11:52:06;;;;;;;35.60;16.98;;;;;;;;;;5050196;28;20500;-67
2021/12/23 11:54:06;;;;;;;49.45;16.02;;;;;;;;;;5036660;28;20041;-66
2021/12/23 11:56:35;;;;;;;40.22;16.23;;;;;;;;;;5050237;28;20504;-67
2021/12/23 11:59:00;;;;;;;26.90;11.23;;;;;;;;;;5053362;28;20013;-67
2021/12/23 12:01:28;;;;;;;34.80;13.80;;;;;;;;;;5058076;28;20086;-66
2021/12/23 12:04:02;;;;;;;27.05;10.65;;;;;;;;;;5050445;28;20493;-66
2021/12/23 12:06:30;;;;;;;37.22;14.75;;;;;;;;;;5050100;28;20025;-66
2021/12/23 12:09:07;;;;;;;30.92;10.68;;;;;;;;;;5050168;28;20029;-67
2021/12/23 12:11:33;;;;;;;34.08;14.02;;;;;;;;;;5050144;28;20024;-65
2021/12/23 12:13:58;;;;;;;35.78;14.55;;;;;;;;;;5050169;28;20398;-66
2021/12/23 12:16:33;;;;;;;29.80;9.13;;;;;;;;;;5049496;28;20077;-67
2021/12/23 12:18:59;;;;;;;19.15;7.78;;;;;;;;;;5049426;28;20024;-66
2021/12/23 12:21:31;;;;;;;37.60;16.50;;;;;;;;;;5049417;28;20020;-66
2021/12/23 12:24:14;;;;;;;16.02;8.55;;;;;;;;;;5050237;28;20021;-66
2021/12/23 12:26:56;;;;;;;28.95;13.70;;;;;;;;;;5030738;28;20013;-66
2021/12/23 12:29:25;;;;;;;33.40;12.90;;;;;;;;;;5048649;28;20029;-66
2021/12/23 12:31:51;;;;;;;31.17;13.43;;;;;;;;;;5050065;28;20043;-66
2021/12/23 12:34:19;;;;;;;37.72;14.65;;;;;;;;;;5049952;28;20486;-66
2021/12/23 12:36:49;;;;;;;33.42;14.23;;;;;;;;;;5063689;23;20189;-65
2021/12/23 12:39:17;;;;;;;31.50;10.68;;;;;;;;;;5047900;28;20439;-65
2021/12/23 12:41:42;;;;;;;24.35;11.25;;;;;;;;;;5045372;28;20023;-65
2021/12/23 12:44:15;;;;;;;30.45;12.25;;;;;;;;;;5049640;28;20104;-65
2021/12/23 12:46:48;;;;;;;43.67;17.10;;;;;;;;;;5048026;28;20060;-65
2021/12/23 12:49:17;;;;;;;35.50;15.55;;;;;;;;;;5049269;28;20021;-65
2021/12/23 12:51:46;;;;;;;30.38;10.52;;;;;;;;;;5049354;28;20103;-65
2021/12/23 12:54:15;;;;;;;39.03;14.68;;;;;;;;;;5049543;28;20017;-65
2021/12/23 12:56:45;;;;;;;37.83;12.40;;;;;;;;;;5049518;28;20079;-65
2021/12/23 12:59:11;;;;;;;27.92;12.65;;;;;;;;;;5049836;28;20025;-65
2021/12/23 13:01:38;;;;;;;35.53;13.60;;;;;;;;;;5048784;28;20071;-65
2021/12/23 13:04:22;;;;;;;19.17;10.25;;;;;;;;;;5030101;28;20414;-65
2021/12/23 13:06:48;;;;;;;13.88;6.40;;;;;;;;;;5049226;28;20056;-65
2021/12/23 13:09:15;;;;;;;39.60;14.77;;;;;;;;;;5048872;28;20480;-65
2021/12/23 13:11:44;;;;;;;31.35;11.30;;;;;;;;;;5046136;28;20499;-65
2021/12/23 13:14:14;;;;;;;40.67;16.95;;;;;;;;;;5049782;28;20521;-65
2021/12/23 13:16:49;;;;;;;33.00;12.25;;;;;;;;;;5048111;28;20024;-64
2021/12/23 13:19:17;;;;;;;35.97;16.00;;;;;;;;;;5049510;28;20025;-64
2021/12/23 13:21:44;;;;;;;32.78;14.93;;;;;;;;;;5047076;28;20029;-64
2021/12/23 13:24:10;;;;;;;43.47;15.70;;;;;;;;;;5049633;28;20023;-64
2021/12/23 13:26:36;;;;;;;17.98;8.43;;;;;;;;;;5048836;28;20033;-64
2021/12/23 13:29:03;;;;;;;27.02;11.18;;;;;;;;;;5050560;28;20048;-65
2021/12/23 13:31:29;;;;;;;34.30;11.75;;;;;;;;;;5052721;28;20025;-65
2021/12/23 13:33:56;;;;;;;33.03;10.93;;;;;;;;;;5053486;28;20021;-65
2021/12/23 13:36:24;;;;;;;27.23;14.18;;;;;;;;;;5051585;28;20291;-65
2021/12/23 13:38:55;;;;;;;26.15;9.07;;;;;;;;;;5052660;28;20051;-65
2021/12/23 13:41:24;;;;;;;25.15;11.15;;;;;;;;;;5052663;28;20151;-65
2021/12/23 13:43:50;;;;;;;32.28;11.35;;;;;;;;;;5052109;28;20516;-64
2021/12/23 13:46:15;;;;;;;41.33;15.25;;;;;;;;;;5053196;28;20025;-65
2021/12/23 13:48:54;;;;;;;46.30;17.05;;;;;;;;;;5050667;28;20025;-65
2021/12/23 13:51:25;;;;;;;34.38;12.10;;;;;;;;;;5052122;28;20485;-65
2021/12/23 13:53:50;;;;;;;;;;;;;;;;;;5053413;28;20029;-65
2021/12/23 13:56:15;;;;;;;33.40;13.18;;;;;;;;;;5052890;28;19920;-65
2021/12/23 13:58:41;;;;;;;37.33;15.82;;;;;;;;;;5053036;28;20013;-65
2021/12/23 14:01:07;;;;;;;20.35;8.85;;;;;;;;;;5052920;28;20242;-65
2021/12/23 14:03:32;;;;;;;30.15;11.00;;;;;;;;;;5051907;28;20520;-65
2021/12/23 14:05:57;;;;;;;33.17;12.73;;;;;;;;;;5045233;28;20029;-65
2021/12/23 14:08:23;;;;;;;30.58;11.18;;;;;;;;;;5052061;28;20465;-65
2021/12/23 14:10:48;;;;;;;24.80;9.82;;;;;;;;;;5051735;28;20035;-65
2021/12/23 14:13:17;;;;;;;21.73;9.50;;;;;;;;;;5048795;28;20030;-65
2021/12/23 14:15:44;;;;;;;20.23;8.80;;;;;;;;;;5049505;28;20457;-65
2021/12/23 14:18:22;;;;;;;29.10;13.35;;;;;;;;;;5051793;28;20029;-65
2021/12/23 14:23:35;;;;;;;24.65;9.20;;;;;;;;;;5047092;28;20032;-65
2021/12/23 14:26:08;;;;;;;23.08;9.20;;;;;;;;;;5051032;28;20025;-64
2021/12/23 14:28:35;;;;;;;39.45;16.67;;;;;;;;;;5058731;28;20071;-64
2021/12/23 14:31:03;;;;;;;18.30;6.75;;;;;;;;;;5056943;28;20026;-65
2021/12/23 14:33:30;;;;;;;24.60;9.85;;;;;;;;;;5050715;28;20365;-65
2021/12/23 14:35:58;;;;;;;28.85;11.90;;;;;;;;;;5061129;28;20028;-65
2021/12/23 14:38:24;;;;;;;39.55;14.07;;;;;;;;;;5050299;28;20391;-65
2021/12/23 14:40:56;;;;;;;31.23;13.02;;;;;;;;;;5040962;28;20021;-65
2021/12/23 14:43:22;;;;;;;34.90;14.55;;;;;;;;;;5047224;28;20039;-65
2021/12/23 14:45:59;;;;;;;39.17;14.50;;;;;;;;;;5031607;28;20144;-65
2021/12/23 14:48:31;;;;;;;23.02;9.65;;;;;;;;;;5049858;28;20024;-65
2021/12/23 14:51:01;;;;;;;22.73;8.50;;;;;;;;;;5049624;28;20021;-65
2021/12/23 14:53:27;;;;;;;25.85;12.07;;;;;;;;;;5051946;28;20024;-65
2021/12/23 14:55:53;;;;;;;29.98;12.80;;;;;;;;;;5064286;28;20037;-65
2021/12/23 14:58:18;;;;;;;46.95;16.60;;;;;;;;;;5057141;28;20543;-65
2021/12/23 15:00:44;;;;;;;43.95;17.77;;;;;;;;;;5049758;28;20025;-65
2021/12/23 15:03:13;;;;;;;47.58;18.60;;;;;;;;;;5049983;28;20017;-65
2021/12/23 15:05:40;;;;;;;41.08;18.92;;;;;;;;;;5049704;28;20036;-64
2021/12/23 15:08:06;;;;;;;39.20;16.90;;;;;;;;;;5049306;28;20119;-65
2021/12/23 15:10:38;;;;;;;29.35;11.93;;;;;;;;;;5049031;28;20412;-65
2021/12/23 15:13:21;;;;;;;37.05;14.70;;;;;;;;;;5045105;28;20035;-65
2021/12/23 15:15:54;;;;;;;46.00;18.45;;;;;;;;;;5047168;28;20028;-65
2021/12/23 15:18:25;;;;;;;38.97;14.25;;;;;;;;;;5031430;28;20020;-65
2021/12/23 15:20:51;;;;;;;16.05;7.15;;;;;;;;;;5049295;28;20017;-65
2021/12/23 15:23:39;;;;;;;44.80;16.95;;;;;;;;;;5049695;28;20456;-64
2021/12/23 15:26:25;;;;;;;41.53;16.73;;;;;;;;;;5048952;28;20028;-65
2021/12/23 15:29:22;;;;;;;50.90;16.30;;;;;;;;;;5049124;28;20116;-65
2021/12/23 15:31:52;;;;;;;16.17;7.80;;;;;;;;;;5004272;28;20120;-65
2021/12/23 15:34:18;;;;;;;39.67;17.77;;;;;;;;;;5047443;28;20053;-65